Tiempo atmosférico en la estación meteorológica de La Pobla de Benifassà-Fredes, Castelló/Castellón (1174 m.)



Fecha
DESCASC
Temp. máxima en grados centígrados (hora)
DESCASC
Temp. mínima en grados centígrados (hora)
DESCASC
Temp. media en grados centígrados
DESCASC
Racha de viento máxima en m/sg (hora)
DESCASC
Velocidad máxima media en intervalos de 10 minutos(hora)
DESCASC
Precipitaciones diarias en mm
DESCASC
Precipitaciones de 00:00 a 06:00 en mm
DESCASC
Precipitaciones de 06:00 a 12:00 en mm
DESCASC
Precipitaciones de 12:00 a 18:00 en mm
DESCASC
Precipitaciones de 18:00 a 24:00 en mm
DESCASC
25-04-2019 -- (--) -- (--) -- 14.17 (15:10) 7.5 (18:50) 0.6 0 0.2 0.4 0
24-04-2019 -- (--) -- (--) -- 10.28 (22:40) 5 (04:30) 0 0 0 0 0
23-04-2019 -- (--) -- (--) -- 10.28 (17:50) 4.17 (14:10) 1 0 0 0.8 0.2
22-04-2019 -- (--) -- (--) -- 10 (03:50) 5 (03:50) 7.8 0 2 0 5.8
21-04-2019 -- (--) -- (--) -- 10 (14:30) 4.72 (14:30) 2.8 2.6 0.2 0 0
20-04-2019 -- (--) -- (--) -- 16.67 (15:10) 7.78 (15:10) 7 0 0 1.8 5.2
19-04-2019 -- (--) -- (--) -- 21.11 (14:20) 10.56 (02:50) 15.8 12.4 3.4 0 0
18-04-2019 -- (--) -- (--) -- 23.33 (22:20) 12.5 (22:20) 5 0 0 0 5
17-04-2019 -- (--) -- (--) -- 9.17 (21:00) 5 (14:10) 0 0 0 0 0
16-04-2019 -- (--) -- (--) -- 12.78 (04:30) 7.5 (06:30) 0 0 0 0 0
15-04-2019 -- (--) -- (--) -- 9.72 (00:40) 6.11 (00:20) 0 0 0 0 0
14-04-2019 -- (--) -- (--) -- 15 (12:10) 8.61 (12:30) 0 0 0 0 0
13-04-2019 -- (--) -- (--) -- 11.39 (00:40) 7.22 (00:40) 0 0 0 0 0
12-04-2019 -- (--) -- (--) -- 18.06 (00:10) 11.39 (00:10) 0 0 0 0 0
11-04-2019 -- (--) -- (--) -- 20.28 (10:50) 12.22 (11:00) 0 0 0 0 0
10-04-2019 -- (--) -- (--) -- 18.06 (10:50) 10.56 (06:40) 3.8 1.6 0.2 0 2
09-04-2019 -- (--) -- (--) -- 18.89 (09:10) 11.67 (10:50) 0.4 0 0 0 0.4
08-04-2019 -- (--) -- (--) -- 13.61 (17:50) 6.11 (13:50) 8.2 0 0.6 1.8 5.8
07-04-2019 -- (--) -- (--) -- 23.06 (07:40) 12.78 (10:00) 0 0 0 0 0
06-04-2019 -- (--) -- (--) -- 18.33 (06:10) 9.72 (06:10) 0.8 0 0 0.2 0.6
05-04-2019 -- (--) -- (--) -- 9.72 (23:59) 5.83 (23:59) 6.6 0 0 4.6 2
04-04-2019 -- (--) -- (--) -- 15.56 (00:50) 8.89 (11:20) 0 0 0 0 0
03-04-2019 -- (--) -- (--) -- 20 (22:10) 10.83 (21:10) 0.8 0 0 0 0.8
02-04-2019 -- (--) -- (--) -- 9.72 (13:10) 5.83 (08:00) 1.8 0 0 1.8 0
01-04-2019 -- (--) -- (--) -- 6.39 (16:40) 2.78 (01:40) 1.6 0.6 1 0 0
31-03-2019 -- (--) -- (--) -- 6.67 (22:10) 3.61 (22:00) 8.4 0 0 4.8 3.6
30-03-2019 -- (--) -- (--) -- 8.33 (14:40) 4.44 (16:10) 0 0 0 0 0
29-03-2019 -- (--) -- (--) -- 11.67 (12:40) 5 (14:40) 0 0 0 0 0
28-03-2019 -- (--) -- (--) -- 8.33 (13:40) 3.89 (13:40) 0 0 0 0 0
27-03-2019 -- (--) -- (--) -- 7.78 (14:20) 3.61 (14:20) 0 0 0 0 0

Gráficas

Temp. máximas Temp. mínimas Temp. medias Precipitaciones Rachas de viento máximas Velocidades máximas media en intervalos de 10 minutos

Datos horarios

Fecha y hora oficial Temperatura (ºC) Velocidad del viento (km/h) Dirección del viento Racha (km/h) Dirección de racha Precipitación (mm) Presión (hPa) Tendencia (hPa) Humedad (%)
2019-04-25 23:00:00 -- 21 Oeste 35 Oeste 0 -- -- 64
2019-04-25 22:00:00 -- 12 Oeste 28 Oeste 0 -- -- 63
2019-04-25 21:00:00 -- 15 Oeste 39 Oeste 0 -- -- 65
2019-04-25 20:00:00 -- 17 Oeste 35 Oeste 0 -- -- 61
2019-04-25 19:00:00 -- 26 Oeste 48 Oeste 0 -- -- 61
2019-04-25 18:00:00 -- 18 Oeste 34 Oeste 0 -- -- 43
2019-04-25 17:00:00 -- 10 Oeste 30 Oeste 0 -- -- 43
2019-04-25 16:00:00 -- 14 Oeste 51 Sur 0 -- -- 47
2019-04-25 15:00:00 -- 8 Sudeste 27 Este 0 -- -- 78
2019-04-25 14:00:00 -- 9 Sudeste 23 Sudeste 0.4 -- -- 87
2019-04-25 13:00:00 -- 9 Este 23 Este 0 -- -- 86
2019-04-25 12:00:00 -- 6 Este 18 Este 0 -- -- 87
2019-04-25 11:00:00 -- 3 Noroeste 12 Oeste 0.2 -- -- 89
2019-04-25 10:00:00 -- 7 Oeste 19 Sudoeste 0 -- -- 86
2019-04-25 09:00:00 -- 6 Sudoeste 21 Sur 0 -- -- 84
2019-04-25 08:00:00 -- 3 Este 8 Sudeste 0 -- -- 90
2019-04-25 07:00:00 -- 5 Sudeste 18 Sudeste 0 -- -- 90
2019-04-25 06:00:00 -- 5 Sudeste 24 Este 0 -- -- 88
2019-04-25 05:00:00 -- 6 Sudeste 23 Este 0 -- -- 84
2019-04-25 04:00:00 -- 8 Sudeste 29 Sudeste 0 -- -- 83
2019-04-25 03:00:00 -- 10 Sudeste 28 Sudeste 0 -- -- 79
2019-04-25 02:00:00 -- 9 Sur 42 Sur 0 -- -- 76
2019-04-25 01:00:00 -- 8 Sudeste 28 Sudeste 0 -- -- 79
2019-04-25 00:00:00 -- 7 Sudeste 28 Sur 0 -- -- 79
2019-04-24 23:00:00 -- 10 Sudeste 37 Sudeste 0 -- -- 77
2019-04-24 22:00:00 -- 4 Sudeste 18 Este 0 -- -- 92
2019-04-24 21:00:00 -- 9 Sudeste 27 Este 0 -- -- 90
2019-04-24 20:00:00 -- 14 Este 26 Este 0 -- -- 86
2019-04-24 19:00:00 -- 12 Este 31 Este 0 -- -- 84
2019-04-24 18:00:00 -- 13 Este 25 Este 0 -- -- 76
2019-04-24 17:00:00 -- 10 Este 30 Sur 0 -- -- 72
2019-04-24 16:00:00 -- 7 Sudeste 22 Este 0 -- -- 62
2019-04-24 15:00:00 -- 8 Sudeste 27 Este 0 -- -- 57
2019-04-24 14:00:00 -- 9 Sudeste 27 Este 0 -- -- 56
2019-04-24 13:00:00 -- 10 Este 21 Este 0 -- -- 57
2019-04-24 12:00:00 -- 4 Este 17 Sudeste 0 -- -- 65
2019-04-24 11:00:00 -- 9 Este 24 Este 0 -- -- 62
2019-04-24 10:00:00 -- 7 Sur 22 Sudeste 0 -- -- 55
2019-04-24 09:00:00 -- 6 Oeste 26 Oeste 0 -- -- 64
2019-04-24 08:00:00 -- 12 Oeste 29 Oeste 0 -- -- 75
2019-04-24 07:00:00 -- 9 Oeste 20 Oeste 0 -- -- 78
2019-04-24 06:00:00 -- 10 Noroeste 32 Noroeste 0 -- -- 74
2019-04-24 05:00:00 -- 13 Oeste 32 Oeste 0 -- -- 70
2019-04-24 04:00:00 -- 14 Noroeste 27 Noroeste 0 -- -- 69
2019-04-24 03:00:00 -- 17 Oeste 26 Oeste 0 -- -- 72
2019-04-24 02:00:00 -- 15 Oeste 28 Oeste 0 -- -- 69
2019-04-24 01:00:00 -- 17 Oeste 32 Oeste 0 -- -- 67
2019-04-24 00:00:00 -- 12 Oeste 23 Oeste 0 -- -- 71
2019-04-23 23:00:00 -- 14 Oeste 28 Oeste 0 -- -- 73
2019-04-23 22:00:00 -- 3 Sudoeste 15 Sur 0 -- -- 78
2019-04-23 21:00:00 -- 8 Sur 23 Sudeste 0 -- -- 71
2019-04-23 20:00:00 -- 8 Sudeste 34 Sudeste 0 -- -- 71
2019-04-23 19:00:00 -- 6 Sur 32 Sudoeste 0.2 -- -- 64
2019-04-23 18:00:00 -- 15 Sudoeste 37 Sudoeste 0.8 -- -- 78
2019-04-23 17:00:00 -- 9 Este 22 Este 0 -- -- 90
2019-04-23 16:00:00 -- 8 Este 26 Sur 0 -- -- 89
2019-04-23 15:00:00 -- 12 Este 31 Este 0 -- -- 82
2019-04-23 14:00:00 -- 11 Este 27 Este 0 -- -- 66
2019-04-23 13:00:00 -- 10 Este 22 Sudeste 0 -- -- 74
2019-04-23 12:00:00 -- 6 Este 13 Este 0 -- -- 78
2019-04-23 11:00:00 -- 6 Sudoeste 15 Oeste 0 -- -- 77
2019-04-23 10:00:00 -- 8 Oeste 18 Oeste 0 -- -- 81
2019-04-23 09:00:00 -- 6 Oeste 15 Oeste 0 -- -- 89
2019-04-23 08:00:00 -- 11 Oeste 17 Oeste 0 -- -- 93
2019-04-23 07:00:00 -- 9 Oeste 14 Oeste 0 -- -- 95
2019-04-23 06:00:00 -- 8 Noroeste 15 Oeste 0 -- -- 94
2019-04-23 05:00:00 -- 8 Oeste 15 Oeste 0 -- -- 96
2019-04-23 04:00:00 -- 4 Oeste 11 Sur 0 -- -- 95
2019-04-23 03:00:00 -- 3 Sur 13 Sur 0 -- -- 96
2019-04-23 02:00:00 -- 8 Sudoeste 15 Sudoeste 0 -- -- 97
2019-04-23 01:00:00 -- 8 Sudoeste 10 Sudoeste 0 -- -- 98
2019-04-23 00:00:00 -- 3 Oeste 7 Oeste 0.6 -- -- 98
2019-04-22 23:00:00 -- 6 Oeste 13 Oeste 1.2 -- -- 98
2019-04-22 22:00:00 -- 12 Oeste 18 Oeste 0.8 -- -- 97
2019-04-22 21:00:00 -- 13 Oeste 18 Oeste 1.2 -- -- 97
2019-04-22 20:00:00 -- 12 Oeste 21 Noroeste 1.6 -- -- 96
2019-04-22 19:00:00 -- 14 Oeste 28 Oeste 0.4 -- -- 96
2019-04-22 18:00:00 -- 15 Oeste 26 Oeste 0 -- -- 95
2019-04-22 17:00:00 -- 14 Oeste 27 Oeste 0 -- -- 93
2019-04-22 16:00:00 -- 16 Oeste 29 Noroeste 0 -- -- 93
2019-04-22 15:00:00 -- 17 Noroeste 31 Noroeste 0 -- -- 94
2019-04-22 14:00:00 -- 13 Noroeste 24 Noroeste 0 -- -- 95
2019-04-22 13:00:00 -- 10 Noroeste 35 Oeste 0 -- -- 97
2019-04-22 12:00:00 -- 15 Oeste 32 Oeste 0 -- -- 97
2019-04-22 11:00:00 -- 15 Oeste 28 Oeste 0 -- -- 97
2019-04-22 10:00:00 -- 13 Noroeste 28 Noroeste 0.4 -- -- 97
2019-04-22 09:00:00 -- 16 Noroeste 30 Oeste 1 -- -- 96
2019-04-22 08:00:00 -- 12 Noroeste 25 Noroeste 0.2 -- -- 95
2019-04-22 07:00:00 -- 10 Noroeste 23 Noroeste 0.4 -- -- 92
2019-04-22 06:00:00 -- 15 Noroeste 29 Noroeste 0 -- -- 91
2019-04-22 05:00:00 -- 17 Noroeste 33 Noroeste 0 -- -- 84
2019-04-22 04:00:00 -- 15 Noroeste 36 Norte 0 -- -- 91
2019-04-22 03:00:00 -- 9 Noroeste 24 Noroeste 0 -- -- 87
2019-04-22 02:00:00 -- 13 Noroeste 28 Noroeste 0 -- -- 90
2019-04-22 01:00:00 -- 10 Noroeste 19 Noroeste 0 -- -- 91
2019-04-22 00:00:00 -- 7 Noroeste 18 Noroeste 0 -- -- 91
2019-04-21 23:00:00 -- 14 Noroeste 28 Noroeste 0 -- -- 92
2019-04-21 22:00:00 -- 9 Norte 26 Nordeste 0 -- -- 90
2019-04-21 21:00:00 -- 3 Norte 13 Norte 0 -- -- 92
2019-04-21 20:00:00 -- 6 Norte 16 Norte 0 -- -- 89
2019-04-21 19:00:00 -- 7 Noroeste 20 Norte 0 -- -- 89
2019-04-21 18:00:00 -- 8 Nordeste 26 Noroeste 0 -- -- 86
2019-04-21 17:00:00 -- 9 Norte 26 Nordeste 0 -- -- 89
2019-04-21 16:00:00 -- 11 Nordeste 30 Nordeste 0 -- -- 82
2019-04-21 15:00:00 -- 10 Nordeste 36 Nordeste 0 -- -- 85
2019-04-21 14:00:00 -- 10 Nordeste 26 Nordeste 0 -- -- 87
2019-04-21 13:00:00 -- 7 Nordeste 28 Nordeste 0 -- -- 88
2019-04-21 12:00:00 -- 10 Nordeste 20 Nordeste 0 -- -- 84
2019-04-21 11:00:00 -- 6 Nordeste 26 Nordeste 0 -- -- 93
2019-04-21 10:00:00 -- 12 Nordeste 31 Nordeste 0.2 -- -- 92
2019-04-21 09:00:00 -- 16 Nordeste 29 Este 0 -- -- 90
2019-04-21 08:00:00 -- 9 Norte 19 Norte 0 -- -- 95
2019-04-21 07:00:00 -- 7 Noroeste 26 Noroeste 0 -- -- 96
2019-04-21 06:00:00 -- 10 Noroeste 21 Noroeste 0 -- -- 96
2019-04-21 05:00:00 -- 11 Noroeste 23 Oeste 0.2 -- -- 95
2019-04-21 04:00:00 -- 10 Noroeste 24 Norte 0.4 -- -- 94
2019-04-21 03:00:00 -- 9 Noroeste 24 Norte 0.4 -- -- 93
2019-04-21 02:00:00 -- 11 Norte 25 Norte 0.6 -- -- 92
2019-04-21 01:00:00 -- 11 Norte 30 Norte 1 -- -- 91
2019-04-21 00:00:00 -- 14 Norte 33 Nordeste 0.6 -- -- 89
2019-04-20 23:00:00 -- 12 Nordeste 26 Nordeste 0.2 -- -- 86
2019-04-20 22:00:00 -- 12 Nordeste 39 Nordeste 0.6 -- -- 87
2019-04-20 21:00:00 -- 18 Nordeste 42 Nordeste 1.4 -- -- 93
2019-04-20 20:00:00 -- 18 Este 52 Este 1.8 -- -- 90
2019-04-20 19:00:00 -- 17 Nordeste 47 Nordeste 0.6 -- -- 87
2019-04-20 18:00:00 -- 22 Nordeste 45 Nordeste 0.6 -- -- 83
2019-04-20 17:00:00 -- 21 Este 55 Nordeste 0.8 -- -- 83
2019-04-20 16:00:00 -- 24 Este 60 Este 0.4 -- -- 76
2019-04-20 15:00:00 -- 26 Nordeste 55 Nordeste 0 -- -- 59
2019-04-20 14:00:00 -- 16 Este 41 Norte 0 -- -- 62
2019-04-20 13:00:00 -- 13 Nordeste 53 Nordeste 0 -- -- 57
2019-04-20 12:00:00 -- 19 Este 45 Este 0 -- -- 54
2019-04-20 11:00:00 -- 19 Este 42 Nordeste 0 -- -- 57
2019-04-20 10:00:00 -- 17 Nordeste 32 Nordeste 0 -- -- 67
2019-04-20 09:00:00 -- 13 Nordeste 28 Nordeste 0 -- -- 69
2019-04-20 08:00:00 -- 16 Nordeste 34 Nordeste 0 -- -- 71
2019-04-20 07:00:00 -- 12 Nordeste 33 Nordeste 0 -- -- 74
2019-04-20 06:00:00 -- 13 Nordeste 37 Nordeste 0 -- -- 71
2019-04-20 05:00:00 -- 17 Nordeste 37 Nordeste 0 -- -- 72
2019-04-20 04:00:00 -- 14 Nordeste 43 Este 0 -- -- 74
2019-04-20 03:00:00 -- 23 Este 50 Este 0 -- -- 75
2019-04-20 02:00:00 -- 19 Este 48 Este 0 -- -- 73
2019-04-20 01:00:00 -- 18 Este 43 Este 0 -- -- 75
2019-04-20 00:00:00 -- 20 Este 54 Este 0 -- -- 80
2019-04-19 23:00:00 -- 19 Nordeste 49 Este 0 -- -- 83
2019-04-19 22:00:00 -- 20 Este 53 Este 0 -- -- 86
2019-04-19 21:00:00 -- 22 Este 53 Este 0 -- -- 82
2019-04-19 20:00:00 -- 19 Este 49 Nordeste 0 -- -- 78
2019-04-19 19:00:00 -- 23 Este 76 Este 0 -- -- 77
2019-04-19 18:00:00 -- 32 Este 73 Este 0 -- -- 77
2019-04-19 17:00:00 -- 24 Este 69 Este 0 -- -- 86
2019-04-19 16:00:00 -- 31 Este 71 Este 0 -- -- 87
2019-04-19 15:00:00 -- 28 Este 76 Este 0 -- -- 98
2019-04-19 14:00:00 -- 33 Este 66 Este 0 -- -- 98
2019-04-19 13:00:00 -- 30 Este 66 Este 0 -- -- 99
2019-04-19 12:00:00 -- 27 Este 61 Este 0 -- -- 98
2019-04-19 11:00:00 -- 27 Este 65 Este 0.6 -- -- 98
2019-04-19 10:00:00 -- 32 Este 68 Este 0.8 -- -- 98
2019-04-19 09:00:00 -- 30 Este 62 Este 0.8 -- -- 98
2019-04-19 08:00:00 -- 25 Este 60 Este 0.8 -- -- 98
2019-04-19 07:00:00 -- 24 Este 64 Este 0.4 -- -- 98
2019-04-19 06:00:00 -- 31 Este 70 Este 0.4 -- -- 98
2019-04-19 05:00:00 -- 36 Este 68 Este 0.6 -- -- 98
2019-04-19 04:00:00 -- 33 Este 63 Este 1.2 -- -- 98
2019-04-19 03:00:00 -- 34 Este 69 Este 2.2 -- -- 98
2019-04-19 02:00:00 -- 29 Este 67 Este 6.2 -- -- 98
2019-04-19 01:00:00 -- 37 Este 64 Este 1.8 -- -- 98
2019-04-19 00:00:00 -- 28 Este 79 Este 5 -- -- 98
2019-04-18 23:00:00 -- 39 Este 84 Este 0 -- -- 98
2019-04-18 22:00:00 -- 42 Este 74 Este 0 -- -- 98
2019-04-18 21:00:00 -- 38 Este 73 Este 0 -- -- 97
2019-04-18 20:00:00 -- 33 Este 57 Sudeste 0 -- -- 97
2019-04-18 19:00:00 -- 31 Este 64 Este 0 -- -- 91
2019-04-18 18:00:00 -- 26 Este 61 Este 0 -- -- 90
2019-04-18 17:00:00 -- 26 Este 55 Este 0 -- -- 82
2019-04-18 16:00:00 -- 24 Este 50 Nordeste 0 -- -- 76
2019-04-18 15:00:00 -- 23 Este 47 Este 0 -- -- 75
2019-04-18 14:00:00 -- 24 Este 47 Este 0 -- -- 72
2019-04-18 13:00:00 -- 23 Este 45 Este 0 -- -- 84
2019-04-18 12:00:00 -- 23 Este 43 Este 0 -- -- 88
2019-04-18 11:00:00 -- 18 Este 33 Este 0 -- -- 87
2019-04-18 10:00:00 -- 16 Este 37 Nordeste 0 -- -- 98
2019-04-18 09:00:00 -- 8 Sudeste 26 Este 0 -- -- 98
2019-04-18 08:00:00 -- 11 Este 34 Sudeste 0 -- -- 98
2019-04-18 07:00:00 -- 14 Este 30 Este 0 -- -- 98
2019-04-18 06:00:00 -- 13 Este 26 Este 0 -- -- 98
2019-04-18 05:00:00 -- 13 Este 27 Este 0 -- -- 98
2019-04-18 04:00:00 -- 11 Este 23 Sudeste 0 -- -- 98
2019-04-18 03:00:00 -- 11 Este 23 Este 0 -- -- 98
2019-04-18 02:00:00 -- 15 Este 26 Este 0 -- -- 97
2019-04-18 01:00:00 -- 14 Este 28 Este 0 -- -- 98
2019-04-18 00:00:00 -- 16 Este 28 Este 0 -- -- 97
2019-04-17 23:00:00 -- 15 Este 27 Este 0 -- -- 97
2019-04-17 22:00:00 -- 15 Este 30 Este 0 -- -- 97
2019-04-17 21:00:00 -- 17 Este 33 Este 0 -- -- 97
2019-04-17 20:00:00 -- 13 Este 30 Este 0 -- -- 97
2019-04-17 19:00:00 -- 13 Este 26 Este 0 -- -- 97
2019-04-17 18:00:00 -- 12 Este 24 Este 0 -- -- 95
2019-04-17 17:00:00 -- 12 Este 28 Este 0 -- -- 93
2019-04-17 16:00:00 -- 15 Este 30 Este 0 -- -- 90
2019-04-17 15:00:00 -- 16 Sudeste 33 Este 0 -- -- 80
2019-04-17 14:00:00 -- 13 Sudeste 32 Este 0 -- -- 85
2019-04-17 13:00:00 -- 14 Este 31 Este 0 -- -- 90
2019-04-17 12:00:00 -- 13 Este 28 Este 0 -- -- 94
2019-04-17 11:00:00 -- 13 Este 23 Sudeste 0 -- -- 97
2019-04-17 10:00:00 -- 8 Sudeste 18 Este 0 -- -- 97
2019-04-17 09:00:00 -- 6 Este 15 Sudeste 0 -- -- 97
2019-04-17 08:00:00 -- 5 Sudeste 14 Este 0 -- -- 97
2019-04-17 07:00:00 -- 6 Este 14 Este 0 -- -- 97
2019-04-17 06:00:00 -- 5 Este 10 Este 0 -- -- 96
2019-04-17 05:00:00 -- 4 Este 13 Este 0 -- -- 95
2019-04-17 04:00:00 -- 8 Este 17 Sudeste 0 -- -- 96
2019-04-17 03:00:00 -- 7 Sudeste 27 Sudeste 0 -- -- 96
2019-04-17 02:00:00 -- 11 Sudeste 26 Este 0 -- -- 96
2019-04-17 01:00:00 -- 13 Este 26 Este 0 -- -- 96
2019-04-17 00:00:00 -- 13 Este 23 Este 0 -- -- 96
2019-04-16 23:00:00 -- 12 Sudeste 26 Nordeste 0 -- -- 95
2019-04-16 22:00:00 -- 9 Este 15 Este 0 -- -- 95
2019-04-16 21:00:00 -- 5 Este 16 Este 0 -- -- 91
2019-04-16 20:00:00 -- 9 Este 17 Este 0 -- -- 86
2019-04-16 19:00:00 -- 8 Este 18 Sudeste 0 -- -- 83
2019-04-16 18:00:00 -- 11 Este 23 Este 0 -- -- 84
2019-04-16 17:00:00 -- 9 Este 22 Este 0 -- -- 82
2019-04-16 16:00:00 -- 12 Este 27 Este 0 -- -- 76
2019-04-16 15:00:00 -- 6 Este 15 Este 0 -- -- 67
2019-04-16 14:00:00 -- 5 Nordeste 15 Noroeste 0 -- -- 66
2019-04-16 13:00:00 -- 11 Oeste 24 Noroeste 0 -- -- 66
2019-04-16 12:00:00 -- 10 Oeste 37 Noroeste 0 -- -- 73
2019-04-16 11:00:00 -- 17 Noroeste 36 Noroeste 0 -- -- 86
2019-04-16 10:00:00 -- 14 Oeste 44 Oeste 0 -- -- 90
2019-04-16 09:00:00 -- 24 Oeste 43 Oeste 0 -- -- 94
2019-04-16 08:00:00 -- 22 Oeste 45 Oeste 0 -- -- 96
2019-04-16 07:00:00 -- 22 Oeste 45 Oeste 0 -- -- 96
2019-04-16 06:00:00 -- 22 Oeste 41 Oeste 0 -- -- 95
2019-04-16 05:00:00 -- 24 Oeste 46 Oeste 0 -- -- 94
2019-04-16 04:00:00 -- 23 Oeste 39 Oeste 0 -- -- 93
2019-04-16 03:00:00 -- 7 Oeste 14 Oeste 0 -- -- 90
2019-04-16 02:00:00 -- 2 Sudoeste 9 Sudeste 0 -- -- 88
2019-04-16 01:00:00 -- 7 Sudeste 13 Sur 0 -- -- 84
2019-04-16 00:00:00 -- 3 Sudeste 11 Sudeste 0 -- -- 88
2019-04-15 23:00:00 -- 3 Este 12 Este 0 -- -- 92
2019-04-15 22:00:00 -- 6 Este 17 Este 0 -- -- 94
2019-04-15 21:00:00 -- 8 Este 22 Este 0 -- -- 94
2019-04-15 20:00:00 -- 10 Este 24 Este 0 -- -- 91
2019-04-15 19:00:00 -- 10 Este 24 Este 0 -- -- 84
2019-04-15 18:00:00 -- 12 Este 28 Este 0 -- -- 81
2019-04-15 17:00:00 -- 16 Este 29 Este 0 -- -- 81
2019-04-15 16:00:00 -- 15 Este 32 Este 0 -- -- 83
2019-04-15 15:00:00 -- 13 Este 29 Este 0 -- -- 89
2019-04-15 14:00:00 -- 13 Este 27 Sudeste 0 -- -- 89
2019-04-15 13:00:00 -- 12 Este 24 Este 0 -- -- 91
2019-04-15 12:00:00 -- 12 Este 27 Este 0 -- -- 87
2019-04-15 11:00:00 -- 14 Este 26 Este 0 -- -- 76
2019-04-15 10:00:00 -- 12 Este 20 Este 0 -- -- 75
2019-04-15 09:00:00 -- 9 Este 15 Este 0 -- -- 78
2019-04-15 08:00:00 -- 8 Este 14 Este 0 -- -- 84
2019-04-15 07:00:00 -- 3 Este 9 Este 0 -- -- 89
2019-04-15 06:00:00 -- 4 Sudeste 8 Este 0 -- -- 77
2019-04-15 05:00:00 -- 3 Oeste 11 Oeste 0 -- -- 78
2019-04-15 04:00:00 -- 8 Oeste 19 Oeste 0 -- -- 76
2019-04-15 03:00:00 -- 4 Noroeste 28 Oeste 0 -- -- 72
2019-04-15 02:00:00 -- 21 Oeste 32 Oeste 0 -- -- 72
2019-04-15 01:00:00 -- 3 Oeste 35 Oeste 0 -- -- 69
2019-04-15 00:00:00 -- 17 Oeste 28 Oeste 0 -- -- 70
2019-04-14 23:00:00 -- 12 Oeste 23 Noroeste 0 -- -- 67
2019-04-14 22:00:00 -- 11 Oeste 23 Oeste 0 -- -- 61
2019-04-14 21:00:00 -- 12 Oeste 25 Noroeste 0 -- -- 57
2019-04-14 20:00:00 -- 13 Oeste 27 Oeste 0 -- -- 51
2019-04-14 19:00:00 -- 12 Noroeste 28 Noroeste 0 -- -- 45
2019-04-14 18:00:00 -- 13 Oeste 36 Noroeste 0 -- -- 44
2019-04-14 17:00:00 -- 17 Noroeste 36 Noroeste 0 -- -- 41
2019-04-14 16:00:00 -- 16 Noroeste 39 Noroeste 0 -- -- 42
2019-04-14 15:00:00 -- 21 Oeste 41 Noroeste 0 -- -- 43
2019-04-14 14:00:00 -- 24 Noroeste 46 Oeste 0 -- -- 47
2019-04-14 13:00:00 -- 30 Oeste 54 Oeste 0 -- -- 50
2019-04-14 12:00:00 -- 29 Oeste 49 Noroeste 0 -- -- 50
2019-04-14 11:00:00 -- 27 Oeste 50 Oeste 0 -- -- 49
2019-04-14 10:00:00 -- 24 Oeste 45 Oeste 0 -- -- 45
2019-04-14 09:00:00 -- 18 Oeste 33 Oeste 0 -- -- 42
2019-04-14 08:00:00 -- 16 Oeste 35 Noroeste 0 -- -- 34
2019-04-14 07:00:00 -- 18 Oeste 36 Oeste 0 -- -- 28
2019-04-14 06:00:00 -- 17 Oeste 33 Oeste 0 -- -- 27
2019-04-14 05:00:00 -- 16 Oeste 28 Oeste 0 -- -- 22
2019-04-14 04:00:00 -- 15 Oeste 25 Oeste 0 -- -- 18
2019-04-14 03:00:00 -- 14 Oeste 22 Oeste 0 -- -- 22
2019-04-14 02:00:00 -- 13 Oeste 18 Oeste 0 -- -- 26
2019-04-14 01:00:00 -- 14 Oeste 19 Oeste 0 -- -- 21
2019-04-14 00:00:00 -- 12 Oeste 17 Oeste 0 -- -- 28
2019-04-13 23:00:00 -- 9 Oeste 13 Oeste 0 -- -- 29
2019-04-13 22:00:00 -- 8 Oeste 12 Oeste 0 -- -- 30
2019-04-13 21:00:00 -- 9 Oeste 16 Noroeste 0 -- -- 29
2019-04-13 20:00:00 -- 9 Noroeste 21 Noroeste 0 -- -- 23
2019-04-13 19:00:00 -- 10 Noroeste 28 Oeste 0 -- -- 22
2019-04-13 18:00:00 -- 13 Oeste 27 Sudoeste 0 -- -- 20
2019-04-13 17:00:00 -- 6 Noroeste 26 Oeste 0 -- -- 23
2019-04-13 16:00:00 -- 12 Oeste 23 Noroeste 0 -- -- 23
2019-04-13 15:00:00 -- 6 Nordeste 21 Noroeste 0 -- -- 24
2019-04-13 14:00:00 -- 13 Oeste 25 Oeste 0 -- -- 31
2019-04-13 13:00:00 -- 9 Oeste 27 Noroeste 0 -- -- 35
2019-04-13 12:00:00 -- 14 Oeste 32 Oeste 0 -- -- 39
2019-04-13 11:00:00 -- 19 Oeste 30 Oeste 0 -- -- 38
2019-04-13 10:00:00 -- 20 Oeste 35 Oeste 0 -- -- 43
2019-04-13 09:00:00 -- 21 Oeste 32 Oeste 0 -- -- 52
2019-04-13 08:00:00 -- 21 Oeste 31 Oeste 0 -- -- 63
2019-04-13 07:00:00 -- 19 Oeste 32 Oeste 0 -- -- 61
2019-04-13 06:00:00 -- 18 Oeste 28 Oeste 0 -- -- 60
2019-04-13 05:00:00 -- 19 Oeste 27 Oeste 0 -- -- 64
2019-04-13 04:00:00 -- 20 Oeste 31 Oeste 0 -- -- 60
2019-04-13 03:00:00 -- 21 Oeste 35 Oeste 0 -- -- 60
2019-04-13 02:00:00 -- 22 Oeste 36 Oeste 0 -- -- 59
2019-04-13 01:00:00 -- 23 Oeste 41 Oeste 0 -- -- 57
2019-04-13 00:00:00 -- 24 Oeste 38 Oeste 0 -- -- 55
2019-04-12 23:00:00 -- 22 Oeste 46 Noroeste 0 -- -- 57
2019-04-12 22:00:00 -- 20 Oeste 33 Oeste 0 -- -- 53
2019-04-12 21:00:00 -- 19 Oeste 35 Noroeste 0 -- -- 51
2019-04-12 20:00:00 -- 20 Oeste 37 Noroeste 0 -- -- 49
2019-04-12 19:00:00 -- 22 Noroeste 42 Noroeste 0 -- -- 47
2019-04-12 18:00:00 -- 24 Noroeste 40 Oeste 0 -- -- 46
2019-04-12 17:00:00 -- 21 Oeste 40 Noroeste 0 -- -- 46
2019-04-12 16:00:00 -- 20 Noroeste 41 Noroeste 0 -- -- 49
2019-04-12 15:00:00 -- 22 Noroeste 46 Oeste 0 -- -- 54
2019-04-12 14:00:00 -- 23 Noroeste 43 Oeste 0 -- -- 58
2019-04-12 13:00:00 -- 23 Oeste 42 Oeste 0 -- -- 63
2019-04-12 12:00:00 -- 23 Oeste 42 Oeste 0 -- -- 70
2019-04-12 11:00:00 -- 26 Oeste 48 Oeste 0 -- -- 78
2019-04-12 10:00:00 -- 27 Oeste 46 Noroeste 0 -- -- 79
2019-04-12 09:00:00 -- 27 Oeste 46 Noroeste 0 -- -- 85
2019-04-12 08:00:00 -- 28 Oeste 50 Oeste 0 -- -- 89
2019-04-12 07:00:00 -- 28 Oeste 53 Oeste 0 -- -- 89
2019-04-12 06:00:00 -- 30 Oeste 52 Oeste 0 -- -- 88
2019-04-12 05:00:00 -- 32 Oeste 54 Oeste 0 -- -- 87
2019-04-12 04:00:00 -- 32 Oeste 54 Noroeste 0 -- -- 87
2019-04-12 03:00:00 -- 32 Oeste 57 Oeste 0 -- -- 86
2019-04-12 02:00:00 -- 31 Oeste 64 Oeste 0 -- -- 84
2019-04-12 01:00:00 -- 35 Oeste 65 Noroeste 0 -- -- 82
2019-04-12 00:00:00 -- 40 Oeste 67 Oeste 0 -- -- 83
2019-04-11 23:00:00 -- 41 Noroeste 67 Oeste 0 -- -- 79
2019-04-11 22:00:00 -- 37 Oeste 65 Noroeste 0 -- -- 78
2019-04-11 21:00:00 -- 36 Oeste 62 Noroeste 0 -- -- 76
2019-04-11 20:00:00 -- 24 Oeste 54 Oeste 0 -- -- 72
2019-04-11 19:00:00 -- 30 Oeste 53 Noroeste 0 -- -- 67
2019-04-11 18:00:00 -- 29 Oeste 57 Oeste 0 -- -- 57
2019-04-11 17:00:00 -- 34 Oeste 61 Oeste 0 -- -- 58
2019-04-11 16:00:00 -- 32 Oeste 62 Oeste 0 -- -- 54
2019-04-11 15:00:00 -- 41 Oeste 62 Oeste 0 -- -- 59
2019-04-11 14:00:00 -- 33 Oeste 63 Noroeste 0 -- -- 61
2019-04-11 13:00:00 -- 42 Oeste 68 Noroeste 0 -- -- 62
2019-04-11 12:00:00 -- 39 Oeste 65 Noroeste 0 -- -- 68
2019-04-11 11:00:00 -- 44 Oeste 73 Noroeste 0 -- -- 71
2019-04-11 10:00:00 -- 38 Oeste 68 Oeste 0 -- -- 78
2019-04-11 09:00:00 -- 36 Oeste 66 Noroeste 0 -- -- 88
2019-04-11 08:00:00 -- 33 Oeste 61 Noroeste 0 -- -- 89
2019-04-11 07:00:00 -- 33 Oeste 55 Noroeste 0 -- -- 89
2019-04-11 06:00:00 -- 32 Oeste 56 Oeste 0 -- -- 91
2019-04-11 05:00:00 -- 33 Oeste 58 Oeste 0 -- -- 91
2019-04-11 04:00:00 -- 31 Oeste 58 Oeste 0 -- -- 90
2019-04-11 03:00:00 -- 33 Oeste 55 Oeste 0 -- -- 89
2019-04-11 02:00:00 -- 27 Oeste 50 Oeste 0 -- -- 89
2019-04-11 01:00:00 -- 27 Oeste 50 Oeste 0 -- -- 87
2019-04-11 00:00:00 -- 26 Oeste 51 Oeste 0 -- -- 88
2019-04-10 23:00:00 -- 26 Noroeste 41 Oeste 0.2 -- -- 90
2019-04-10 22:00:00 -- 17 Oeste 39 Noroeste 1.2 -- -- 91
2019-04-10 21:00:00 -- 23 Noroeste 39 Oeste 0.6 -- -- 85
2019-04-10 20:00:00 -- 22 Noroeste 36 Oeste 0 -- -- 70
2019-04-10 19:00:00 -- 18 Oeste 38 Noroeste 0 -- -- 64
2019-04-10 18:00:00 -- 23 Noroeste 46 Noroeste 0 -- -- 57
2019-04-10 17:00:00 -- 26 Noroeste 43 Noroeste 0 -- -- 55
2019-04-10 16:00:00 -- 23 Oeste 48 Oeste 0 -- -- 58
2019-04-10 15:00:00 -- 26 Oeste 54 Noroeste 0 -- -- 60
2019-04-10 14:00:00 -- 29 Oeste 53 Oeste 0 -- -- 61
2019-04-10 13:00:00 -- 28 Noroeste 51 Oeste 0 -- -- 63
2019-04-10 12:00:00 -- 28 Noroeste 56 Noroeste 0 -- -- 70
2019-04-10 11:00:00 -- 35 Noroeste 65 Oeste 0.2 -- -- 76
2019-04-10 10:00:00 -- 30 Noroeste 52 Oeste 0 -- -- 82
2019-04-10 09:00:00 -- 29 Oeste 62 Noroeste 0 -- -- 85
2019-04-10 08:00:00 -- 37 Oeste 60 Oeste 0 -- -- 88
2019-04-10 07:00:00 -- 37 Oeste 64 Oeste 0 -- -- 88
2019-04-10 06:00:00 -- 30 Oeste 51 Oeste 0 -- -- 89
2019-04-10 05:00:00 -- 26 Oeste 46 Oeste 0 -- -- 90
2019-04-10 04:00:00 -- 24 Oeste 47 Noroeste 0 -- -- 91
2019-04-10 03:00:00 -- 20 Oeste 39 Oeste 0 -- -- 92
2019-04-10 02:00:00 -- 26 Oeste 43 Noroeste 0.2 -- -- 93
2019-04-10 01:00:00 -- 23 Oeste 50 Oeste 1.4 -- -- 93
2019-04-10 00:00:00 -- 25 Oeste 42 Oeste 0 -- -- 87
2019-04-09 23:00:00 -- 23 Oeste 44 Noroeste 0 -- -- 86
2019-04-09 22:00:00 -- 24 Oeste 42 Oeste 0 -- -- 85
2019-04-09 21:00:00 -- 17 Oeste 31 Oeste 0 -- -- 86
2019-04-09 20:00:00 -- 10 Noroeste 34 Oeste 0.4 -- -- 85
2019-04-09 19:00:00 -- 10 Oeste 33 Noroeste 0 -- -- 60
2019-04-09 18:00:00 -- 18 Oeste 38 Oeste 0 -- -- 62
2019-04-09 17:00:00 -- 10 Oeste 35 Oeste 0 -- -- 55
2019-04-09 16:00:00 -- 19 Oeste 37 Oeste 0 -- -- 46
2019-04-09 15:00:00 -- 16 Oeste 31 Oeste 0 -- -- 49
2019-04-09 14:00:00 -- 16 Oeste 43 Oeste 0 -- -- 52
2019-04-09 13:00:00 -- 22 Noroeste 57 Noroeste 0 -- -- 57
2019-04-09 12:00:00 -- 29 Oeste 61 Noroeste 0 -- -- 61
2019-04-09 11:00:00 -- 36 Noroeste 66 Noroeste 0 -- -- 68
2019-04-09 10:00:00 -- 33 Oeste 68 Noroeste 0 -- -- 72
2019-04-09 09:00:00 -- 36 Oeste 67 Oeste 0 -- -- 80
2019-04-09 08:00:00 -- 33 Oeste 56 Oeste 0 -- -- 84
2019-04-09 07:00:00 -- 28 Noroeste 53 Oeste 0 -- -- 86
2019-04-09 06:00:00 -- 30 Oeste 46 Oeste 0 -- -- 86
2019-04-09 05:00:00 -- 25 Oeste 40 Oeste 0 -- -- 86
2019-04-09 04:00:00 -- 15 Oeste 24 Oeste 0 -- -- 91
2019-04-09 03:00:00 -- 16 Oeste 31 Oeste 0 -- -- 90
2019-04-09 02:00:00 -- 17 Oeste 35 Oeste 0 -- -- 90
2019-04-09 01:00:00 -- 9 Oeste 17 Oeste 0 -- -- 90
2019-04-09 00:00:00 -- 11 Oeste 18 Oeste 0 -- -- 90
2019-04-08 23:00:00 -- 10 Oeste 15 Oeste 0 -- -- 94
2019-04-08 22:00:00 -- 4 Oeste 8 Sudoeste 0 -- -- 93
2019-04-08 21:00:00 -- 5 Sur 10 Sudoeste 0 -- -- 90
2019-04-08 20:00:00 -- 4 Sur 20 Sudoeste 1.6 -- -- 91
2019-04-08 19:00:00 -- 14 Sudoeste 30 Sudoeste 4.2 -- -- 85
2019-04-08 18:00:00 -- 6 Oeste 49 Oeste 1.6 -- -- 85
2019-04-08 17:00:00 -- 7 Oeste 27 Sudoeste 0 -- -- 57
2019-04-08 16:00:00 -- 12 Oeste 25 Oeste 0 -- -- 68
2019-04-08 15:00:00 -- 15 Oeste 32 Oeste 0 -- -- 64
2019-04-08 14:00:00 -- 18 Oeste 38 Oeste 0 -- -- 65
2019-04-08 13:00:00 -- 17 Oeste 33 Noroeste 0.2 -- -- 64
2019-04-08 12:00:00 -- 17 Oeste 34 Oeste 0 -- -- 70
2019-04-08 11:00:00 -- 15 Oeste 31 Oeste 0 -- -- 70
2019-04-08 10:00:00 -- 14 Oeste 30 Oeste 0 -- -- 81
2019-04-08 09:00:00 -- 11 Oeste 25 Oeste 0 -- -- 91
2019-04-08 08:00:00 -- 10 Oeste 21 Oeste 0.4 -- -- 93
2019-04-08 07:00:00 -- 11 Oeste 18 Oeste 0.2 -- -- 90
2019-04-08 06:00:00 -- 6 Oeste 13 Oeste 0 -- -- 79
2019-04-08 05:00:00 -- 4 Oeste 10 Sudoeste 0 -- -- 66
2019-04-08 04:00:00 -- 4 Sudoeste 10 Sur 0 -- -- 61
2019-04-08 03:00:00 -- 5 Sudoeste 13 Sudoeste 0 -- -- 60
2019-04-08 02:00:00 -- 6 Sur 13 Sudoeste 0 -- -- 59
2019-04-08 01:00:00 -- 3 Sur 6 Sudoeste 0 -- -- 58
2019-04-08 00:00:00 -- 4 Oeste 9 Oeste 0 -- -- 62
2019-04-07 23:00:00 -- 6 Oeste 15 Oeste 0 -- -- 63
2019-04-07 22:00:00 -- 9 Oeste 17 Noroeste 0 -- -- 66
2019-04-07 21:00:00 -- 7 Noroeste 21 Oeste 0 -- -- 62
2019-04-07 20:00:00 -- 12 Oeste 31 Noroeste 0 -- -- 55
2019-04-07 19:00:00 -- 17 Oeste 38 Oeste 0 -- -- 53
2019-04-07 18:00:00 -- 21 Oeste 42 Oeste 0 -- -- 49
2019-04-07 17:00:00 -- 15 Oeste 46 Noroeste 0 -- -- 49
2019-04-07 16:00:00 -- 30 Oeste 60 Noroeste 0 -- -- 51
2019-04-07 15:00:00 -- 24 Noroeste 57 Oeste 0 -- -- 56
2019-04-07 14:00:00 -- 32 Noroeste 60 Noroeste 0 -- -- 56
2019-04-07 13:00:00 -- 33 Oeste 65 Oeste 0 -- -- 56
2019-04-07 12:00:00 -- 23 Noroeste 66 Noroeste 0 -- -- 64
2019-04-07 11:00:00 -- 34 Noroeste 73 Noroeste 0 -- -- 77
2019-04-07 10:00:00 -- 46 Oeste 78 Oeste 0 -- -- 80
2019-04-07 09:00:00 -- 46 Oeste 75 Noroeste 0 -- -- 77
2019-04-07 08:00:00 -- 45 Oeste 83 Oeste 0 -- -- 81
2019-04-07 07:00:00 -- 39 Oeste 71 Noroeste 0 -- -- 80
2019-04-07 06:00:00 -- 40 Oeste 72 Oeste 0 -- -- 79
2019-04-07 05:00:00 -- 36 Oeste 68 Oeste 0 -- -- 79
2019-04-07 04:00:00 -- 35 Oeste 61 Noroeste 0 -- -- 82
2019-04-07 03:00:00 -- 30 Oeste 58 Oeste 0 -- -- 79
2019-04-07 02:00:00 -- 27 Oeste 44 Oeste 0 -- -- 79
2019-04-07 01:00:00 -- 25 Oeste 45 Oeste 0 -- -- 84
2019-04-07 00:00:00 -- 24 Oeste 42 Oeste 0 -- -- 86
2019-04-06 23:00:00 -- 16 Oeste 30 Oeste 0.2 -- -- 87
2019-04-06 22:00:00 -- 9 Oeste 21 Oeste 0 -- -- 85
2019-04-06 21:00:00 -- 7 Oeste 18 Oeste 0 -- -- 80
2019-04-06 20:00:00 -- 8 Oeste 19 Oeste 0 -- -- 80
2019-04-06 19:00:00 -- 5 Oeste 29 Oeste 0.4 -- -- 87
2019-04-06 18:00:00 -- 22 Oeste 40 Oeste 0.2 -- -- 76
2019-04-06 17:00:00 -- 2 Este 22 Noroeste 0 -- -- 47
2019-04-06 16:00:00 -- 10 Oeste 27 Oeste 0 -- -- 50
2019-04-06 15:00:00 -- 14 Oeste 32 Sudoeste 0 -- -- 48
2019-04-06 14:00:00 -- 14 Oeste 31 Sudoeste 0 -- -- 49
2019-04-06 13:00:00 -- 9 Oeste 24 Oeste 0 -- -- 53
2019-04-06 12:00:00 -- 10 Oeste 36 Oeste 0 -- -- 56
2019-04-06 11:00:00 -- 14 Oeste 27 Sudoeste 0 -- -- 61
2019-04-06 10:00:00 -- 10 Oeste 25 Sudoeste 0 -- -- 67
2019-04-06 09:00:00 -- 12 Oeste 26 Oeste 0 -- -- 74
2019-04-06 08:00:00 -- 10 Oeste 21 Oeste 0 -- -- 77
2019-04-06 07:00:00 -- 8 Oeste 66 Oeste 0 -- -- 75
2019-04-06 06:00:00 -- 30 Oeste 61 Oeste 0 -- -- 72
2019-04-06 05:00:00 -- 33 Oeste 58 Noroeste 0 -- -- 75
2019-04-06 04:00:00 -- 33 Oeste 62 Oeste 0 -- -- 79
2019-04-06 03:00:00 -- 31 Oeste 54 Oeste 0 -- -- 81
2019-04-06 02:00:00 -- 25 Oeste 46 Oeste 0 -- -- 83
2019-04-06 01:00:00 -- 25 Oeste 51 Oeste 0 -- -- 81
2019-04-06 00:00:00 -- 21 Oeste 35 Oeste 0 -- -- 84
2019-04-05 23:00:00 -- 6 Oeste 19 Sudoeste 0 -- -- 86
2019-04-05 22:00:00 -- 4 Sur 13 Sur 0 -- -- 87
2019-04-05 21:00:00 -- 2 Sur 21 Sur 0.2 -- -- 88
2019-04-05 20:00:00 -- 9 Sur 21 Sudoeste 0 -- -- 84
2019-04-05 19:00:00 -- 3 Oeste 19 Oeste 1.8 -- -- 94
2019-04-05 18:00:00 -- 16 Oeste 28 Sudoeste 4.4 -- -- 86
2019-04-05 17:00:00 -- 5 Sudeste 25 Este 0.2 -- -- 86
2019-04-05 16:00:00 -- 13 Este 27 Este 0 -- -- 82
2019-04-05 15:00:00 -- 12 Este 26 Este 0 -- -- 73
2019-04-05 14:00:00 -- 8 Este 27 Este 0 -- -- 71
2019-04-05 13:00:00 -- 9 Este 18 Este 0 -- -- 68
2019-04-05 12:00:00 -- 9 Este 15 Este 0 -- -- 81
2019-04-05 11:00:00 -- 3 Este 8 Sudeste 0 -- -- 90
2019-04-05 10:00:00 -- 3 Este 5 Este 0 -- -- 90
2019-04-05 09:00:00 -- 2 Sudoeste 13 Sur 0 -- -- 88
2019-04-05 08:00:00 -- 4 Sur 9 Sudeste 0 -- -- 90
2019-04-05 07:00:00 -- 5 Sudeste 11 Sudeste 0 -- -- 93
2019-04-05 06:00:00 -- 5 Este 13 Este 0 -- -- 93
2019-04-05 05:00:00 -- 5 Sudeste 16 Sudeste 0 -- -- 89
2019-04-05 04:00:00 -- 6 Sudeste 24 Sudeste 0 -- -- 91
2019-04-05 03:00:00 -- 4 Sudeste 23 Sudeste 0 -- -- 86
2019-04-05 02:00:00 -- 7 Sudeste 21 Este 0 -- -- 85
2019-04-05 01:00:00 -- 4 Sudeste 21 Sudeste 0 -- -- 88
2019-04-05 00:00:00 -- 0 Calma 13 Este 0 -- -- 86
2019-04-04 23:00:00 -- 7 Este 21 Este 0 -- -- 88
2019-04-04 22:00:00 -- 7 Sudeste 18 Sudeste 0 -- -- 82
2019-04-04 21:00:00 -- 3 Este 15 Este 0 -- -- 72
2019-04-04 20:00:00 -- 6 Sudeste 18 Este 0 -- -- 66
2019-04-04 19:00:00 -- 5 Este 21 Este 0 -- -- 60
2019-04-04 18:00:00 -- 10 Este 39 Este 0 -- -- 58
2019-04-04 17:00:00 -- 9 Este 25 Noroeste 0 -- -- 48
2019-04-04 16:00:00 -- 11 Oeste 33 Oeste 0 -- -- 38
2019-04-04 15:00:00 -- 16 Oeste 34 Oeste 0 -- -- 42
2019-04-04 14:00:00 -- 16 Oeste 36 Oeste 0 -- -- 44
2019-04-04 13:00:00 -- 22 Oeste 40 Oeste 0 -- -- 52
2019-04-04 12:00:00 -- 21 Oeste 47 Noroeste 0 -- -- 64
2019-04-04 11:00:00 -- 29 Oeste 47 Noroeste 0 -- -- 69
2019-04-04 10:00:00 -- 27 Noroeste 54 Oeste 0 -- -- 74
2019-04-04 09:00:00 -- 24 Noroeste 48 Oeste 0 -- -- 78
2019-04-04 08:00:00 -- 27 Oeste 45 Noroeste 0 -- -- 80
2019-04-04 07:00:00 -- 21 Oeste 46 Oeste 0 -- -- 80
2019-04-04 06:00:00 -- 27 Oeste 49 Oeste 0 -- -- 80
2019-04-04 05:00:00 -- 30 Oeste 49 Noroeste 0 -- -- 83
2019-04-04 04:00:00 -- 25 Oeste 49 Oeste 0 -- -- 86
2019-04-04 03:00:00 -- 25 Oeste 52 Oeste 0 -- -- 88
2019-04-04 02:00:00 -- 28 Oeste 53 Oeste 0 -- -- 89
2019-04-04 01:00:00 -- 24 Oeste 56 Oeste 0 -- -- 87
2019-04-04 00:00:00 -- 24 Oeste 65 Oeste 0 -- -- 88
2019-04-03 23:00:00 -- 35 Oeste 72 Noroeste 0 -- -- 91
2019-04-03 22:00:00 -- 37 Noroeste 68 Oeste 0.2 -- -- 95
2019-04-03 21:00:00 -- 37 Oeste 61 Noroeste 0 -- -- 95
2019-04-03 20:00:00 -- 35 Oeste 56 Noroeste 0 -- -- 95
2019-04-03 19:00:00 -- 31 Oeste 51 Noroeste 0.6 -- -- 95
2019-04-03 18:00:00 -- 31 Noroeste 46 Noroeste 0 -- -- 94
2019-04-03 17:00:00 -- 24 Noroeste 39 Noroeste 0 -- -- 90
2019-04-03 16:00:00 -- 17 Noroeste 33 Noroeste 0 -- -- 79
2019-04-03 15:00:00 -- 13 Noroeste 29 Noroeste 0 -- -- 75
2019-04-03 14:00:00 -- 3 Nordeste 12 Oeste 0 -- -- 72
2019-04-03 13:00:00 -- 5 Este 15 Sudoeste 0 -- -- 69
2019-04-03 12:00:00 -- 4 Oeste 19 Oeste 0 -- -- 54
2019-04-03 11:00:00 -- 8 Oeste 21 Oeste 0 -- -- 63
2019-04-03 10:00:00 -- 13 Oeste 23 Oeste 0 -- -- 68
2019-04-03 09:00:00 -- 11 Oeste 22 Noroeste 0 -- -- 71
2019-04-03 08:00:00 -- 5 Sudoeste 8 Sudoeste 0 -- -- 76
2019-04-03 07:00:00 -- 4 Sur 7 Sur 0 -- -- 74
2019-04-03 06:00:00 -- 3 Sudeste 8 Oeste 0 -- -- 72
2019-04-03 05:00:00 -- 4 Oeste 13 Oeste 0 -- -- 78
2019-04-03 04:00:00 -- 9 Oeste 13 Oeste 0 -- -- 76
2019-04-03 03:00:00 -- 6 Oeste 11 Oeste 0 -- -- 73
2019-04-03 02:00:00 -- 8 Oeste 11 Oeste 0 -- -- 77
2019-04-03 01:00:00 -- 8 Oeste 14 Oeste 0 -- -- 73
2019-04-03 00:00:00 -- 9 Oeste 17 Oeste 0 -- -- 75
2019-04-02 23:00:00 -- 10 Oeste 17 Oeste 0 -- -- 77
2019-04-02 22:00:00 -- 8 Oeste 19 Oeste 0 -- -- 82
2019-04-02 21:00:00 -- 8 Oeste 33 Oeste 0 -- -- 83
2019-04-02 20:00:00 -- 10 Noroeste 27 Oeste 0 -- -- 64
2019-04-02 19:00:00 -- 0 Calma 9 Este 0 -- -- 77
2019-04-02 18:00:00 -- 3 Este 17 Este 0 -- -- 77
2019-04-02 17:00:00 -- 5 Sudeste 13 Sudeste 0 -- -- 78
2019-04-02 16:00:00 -- 3 Sudeste 15 Noroeste 0 -- -- 77
2019-04-02 15:00:00 -- 8 Noroeste 25 Oeste 0 -- -- 81
2019-04-02 14:00:00 -- 16 Oeste 35 Noroeste 1.8 -- -- 88
2019-04-02 13:00:00 -- 13 Noroeste 31 Oeste 0 -- -- 71
2019-04-02 12:00:00 -- 15 Noroeste 30 Noroeste 0 -- -- 72
2019-04-02 11:00:00 -- 12 Noroeste 26 Noroeste 0 -- -- 79
2019-04-02 10:00:00 -- 13 Oeste 31 Oeste 0 -- -- 82
2019-04-02 09:00:00 -- 17 Oeste 30 Noroeste 0 -- -- 85
2019-04-02 08:00:00 -- 21 Oeste 30 Oeste 0 -- -- 88
2019-04-02 07:00:00 -- 14 Oeste 22 Oeste 0 -- -- 87
2019-04-02 06:00:00 -- 10 Oeste 17 Oeste 0 -- -- 86
2019-04-02 05:00:00 -- 12 Oeste 20 Oeste 0 -- -- 86
2019-04-02 04:00:00 -- 12 Oeste 17 Oeste 0 -- -- 86
2019-04-02 03:00:00 -- 5 Oeste 8 Oeste 0 -- -- 85
2019-04-02 02:00:00 -- 5 Sudoeste 7 Sur 0 -- -- 86
2019-04-02 01:00:00 -- 4 Sur 8 Sur 0 -- -- 80
2019-04-02 00:00:00 -- 5 Sur 12 Sur 0 -- -- 73
2019-04-01 23:00:00 -- 5 Sur 10 Sur 0 -- -- 73
2019-04-01 22:00:00 -- 0 Calma 5 Sur 0 -- -- 81
2019-04-01 21:00:00 -- 0 Calma 5 Sudoeste 0 -- -- 80
2019-04-01 20:00:00 -- 0 Calma 12 Este 0 -- -- 77
2019-04-01 19:00:00 -- 5 Este 15 Este 0 -- -- 74
2019-04-01 18:00:00 -- 7 Este 23 Este 0 -- -- 61
2019-04-01 17:00:00 -- 10 Este 23 Este 0 -- -- 58
2019-04-01 16:00:00 -- 8 Este 15 Este 0 -- -- 51
2019-04-01 15:00:00 -- 8 Este 15 Este 0 -- -- 57
2019-04-01 14:00:00 -- 7 Este 17 Este 0 -- -- 62
2019-04-01 13:00:00 -- 7 Este 14 Sudeste 0 -- -- 78
2019-04-01 12:00:00 -- 6 Este 12 Nordeste 0.2 -- -- 79
2019-04-01 11:00:00 -- 3 Este 9 Este 0.6 -- -- 96
2019-04-01 10:00:00 -- 0 Calma 3 Este 0.2 -- -- 97
2019-04-01 09:00:00 -- 0 Calma 5 Oeste 0 -- -- 97
2019-04-01 08:00:00 -- 2 Sudeste 6 Nordeste 0 -- -- 97
2019-04-01 07:00:00 -- 4 Nordeste 11 Este 0 -- -- 97
2019-04-01 06:00:00 -- 6 Este 12 Este 0 -- -- 97
2019-04-01 05:00:00 -- 0 Calma 8 Este 0.2 -- -- 97
2019-04-01 04:00:00 -- 3 Nordeste 13 Nordeste 0 -- -- 97
2019-04-01 03:00:00 -- 6 Nordeste 16 Nordeste 0.2 -- -- 97
2019-04-01 02:00:00 -- 6 Nordeste 18 Nordeste 0 -- -- 97
2019-04-01 01:00:00 -- 8 Este 21 Nordeste 0.2 -- -- 96
2019-04-01 00:00:00 -- 9 Nordeste 15 Nordeste 0 -- -- 93
2019-03-31 23:00:00 -- 9 Nordeste 24 Nordeste 0.4 -- -- 95
2019-03-31 22:00:00 -- 13 Este 21 Nordeste 0.4 -- -- 94
2019-03-31 21:00:00 -- 10 Nordeste 22 Este 0.6 -- -- 94
2019-03-31 20:00:00 -- 11 Nordeste 22 Norte 1 -- -- 94
2019-03-31 19:00:00 -- 8 Este 21 Nordeste 1.2 -- -- 93
2019-03-31 18:00:00 -- 7 Este 13 Nordeste 1 -- -- 95
2019-03-31 17:00:00 -- 4 Este 9 Norte 1.4 -- -- 96
2019-03-31 16:00:00 -- 7 Norte 15 Noroeste 1.6 -- -- 94
2019-03-31 15:00:00 -- 3 Este 11 Este 0 -- -- 93
2019-03-31 14:00:00 -- 6 Este 14 Este 0.8 -- -- 94
2019-03-31 13:00:00 -- 7 Este 22 Este 0 -- -- 94
2019-03-31 12:00:00 -- 10 Este 19 Este 0 -- -- 90
2019-03-31 11:00:00 -- 5 Este 14 Sudeste 0 -- -- 93
2019-03-31 10:00:00 -- 6 Este 13 Este 0 -- -- 93
2019-03-31 09:00:00 -- 3 Este 11 Sudeste 0 -- -- 93
2019-03-31 08:00:00 -- 5 Sudeste 9 Este 0 -- -- 92
2019-03-31 07:00:00 -- 2 Sudeste 9 Sudeste 0 -- -- 89
2019-03-31 06:00:00 -- 0 Calma 5 Oeste 0 -- -- 53
2019-03-31 05:00:00 -- 0 Calma 10 Sudeste 0 -- -- 86
2019-03-31 03:00:00 -- 3 Este 6 Este 0 -- -- 39
2019-03-31 01:00:00 -- 2 Nordeste 5 Nordeste 0 -- -- 42
2019-03-31 00:00:00 -- 2 Este 6 Este 0 -- -- 53
2019-03-30 23:00:00 -- 3 Este 7 Este 0 -- -- 84
2019-03-30 22:00:00 -- 4 Sudeste 13 Este 0 -- -- 93
2019-03-30 21:00:00 -- 5 Sudeste 18 Este 0 -- -- 93
2019-03-30 20:00:00 -- 9 Este 19 Este 0 -- -- 91
2019-03-30 19:00:00 -- 10 Este 22 Este 0 -- -- 83
2019-03-30 18:00:00 -- 11 Este 24 Sudeste 0 -- -- 74
2019-03-30 17:00:00 -- 13 Este 30 Este -- -- -- 69
2019-03-30 16:00:00 -- 14 Este 28 Este 0 -- -- 69
2019-03-30 15:00:00 -- 15 Este 30 Sudeste 0 -- -- 59
2019-03-30 14:00:00 -- 13 Este 26 Este 0 -- -- 58
2019-03-30 13:00:00 -- 10 Este 25 Este 0 -- -- 62
2019-03-30 12:00:00 -- 5 Sudeste 21 Este 0 -- -- 61
2019-03-30 11:00:00 -- 11 Este 24 Este 0 -- -- 71
2019-03-30 10:00:00 -- 8 Este 16 Este 0 -- -- 70
2019-03-30 09:00:00 -- 7 Este 13 Este 0 -- -- 71
2019-03-30 08:00:00 -- 3 Este 5 Este 0 -- -- 85
2019-03-30 07:00:00 -- 3 Este 6 Este 0 -- -- 93
2019-03-30 06:00:00 -- 3 Este 4 Este 0 -- -- 91
2019-03-30 05:00:00 -- 0 Calma 3 Este 0 -- -- 81
2019-03-30 04:00:00 -- 0 Calma 3 Sudeste 0 -- -- 73
2019-03-30 03:00:00 -- 0 Calma 4 Sudeste 0 -- -- 73
2019-03-30 02:00:00 -- 0 Calma 3 Este 0 -- -- 77
2019-03-30 01:00:00 -- 0 Calma 9 Este 0 -- -- 76
2019-03-30 00:00:00 -- 3 Este 8 Este 0 -- -- 81
2019-03-29 23:00:00 -- 3 Este 12 Sudeste 0 -- -- 86
2019-03-29 22:00:00 -- 5 Sudeste 13 Sudeste 0 -- -- 76
2019-03-29 21:00:00 -- 3 Este 12 Sudeste 0 -- -- 75
2019-03-29 20:00:00 -- 7 Sudeste 19 Este 0 -- -- 68
2019-03-29 19:00:00 -- 10 Este 35 Este 0 -- -- 63
2019-03-29 18:00:00 -- 16 Este 33 Este 0 -- -- 62
2019-03-29 17:00:00 -- 16 Este 33 Este 0 -- -- 61
2019-03-29 16:00:00 -- 16 Este 32 Nordeste 0 -- -- 55
2019-03-29 15:00:00 -- 13 Sudeste 31 Este 0 -- -- 57
2019-03-29 14:00:00 -- 15 Este 33 Sudeste 0 -- -- 58
2019-03-29 13:00:00 -- 15 Este 42 Este 0 -- -- 62
2019-03-29 12:00:00 -- 13 Sudeste 32 Este 0 -- -- 50
2019-03-29 11:00:00 -- 12 Este 26 Este 0 -- -- 51
2019-03-29 10:00:00 -- 12 Este 30 Este 0 -- -- 53
2019-03-29 09:00:00 -- 9 Sudeste 19 Sudeste 0 -- -- 63
2019-03-29 08:00:00 -- 5 Sudeste 18 Este 0 -- -- 47
2019-03-29 07:00:00 -- 5 Sudeste 17 Sur 0 -- -- 49
2019-03-29 06:00:00 -- 6 Sur 17 Sur 0 -- -- 49
2019-03-29 05:00:00 -- 7 Sur 14 Sur 0 -- -- 52
2019-03-29 04:00:00 -- 4 Sur 9 Sur 0 -- -- 53
2019-03-29 03:00:00 -- 3 Sudeste 15 Sudeste 0 -- -- 52
2019-03-29 02:00:00 -- 3 Sudeste 16 Sudeste 0 -- -- 46
2019-03-29 01:00:00 -- 4 Sudeste 17 Sudeste 0 -- -- 53
2019-03-29 00:00:00 -- 0 Calma 4 Sudeste 0 -- -- 56
2019-03-28 23:00:00 -- 2 Este 10 Sudeste 0 -- -- 57
2019-03-28 22:00:00 -- 0 Calma 8 Este 0 -- -- 60
2019-03-28 21:00:00 -- 0 Calma 8 Sudeste 0 -- -- 57
2019-03-28 20:00:00 -- 3 Sudeste 12 Sudeste 0 -- -- 61
2019-03-28 19:00:00 -- 4 Sudeste 18 Este 0 -- -- 53
2019-03-28 18:00:00 -- 7 Este 18 Este 0 -- -- 56
2019-03-28 17:00:00 -- 8 Sudeste 26 Este 0 -- -- 65
2019-03-28 16:00:00 -- 9 Este 28 Este 0 -- -- 48
2019-03-28 15:00:00 -- 10 Sudeste 26 Nordeste 0 -- -- 49
2019-03-28 14:00:00 -- 12 Este 30 Este 0 -- -- 56
2019-03-28 13:00:00 -- 9 Este 26 Este 0 -- -- 66
2019-03-28 12:00:00 -- 7 Este 23 Este 0 -- -- 50
2019-03-28 11:00:00 -- 7 Sudeste 20 Sudeste 0 -- -- 52
2019-03-28 10:00:00 -- 5 Noroeste 16 Oeste 0 -- -- 54
2019-03-28 09:00:00 -- 11 Oeste 21 Oeste 0 -- -- 63
2019-03-28 08:00:00 -- 12 Oeste 18 Oeste 0 -- -- 63
2019-03-28 07:00:00 -- 13 Oeste 19 Oeste 0 -- -- 64
2019-03-28 06:00:00 -- 12 Oeste 15 Oeste 0 -- -- 60
2019-03-28 05:00:00 -- 10 Oeste 15 Oeste 0 -- -- 58
2019-03-28 04:00:00 -- 9 Oeste 15 Noroeste 0 -- -- 57
2019-03-28 03:00:00 -- 10 Oeste 15 Noroeste 0 -- -- 58
2019-03-28 02:00:00 -- 9 Oeste 13 Oeste 0 -- -- 62
2019-03-28 01:00:00 -- 3 Oeste 12 Oeste 0 -- -- 63
2019-03-28 00:00:00 -- 0 Calma 7 Este 0 -- -- 64
2019-03-27 23:00:00 -- 4 Este 8 Nordeste 0 -- -- 55
2019-03-27 22:00:00 -- 2 Nordeste 7 Norte 0 -- -- 52
2019-03-27 21:00:00 -- 2 Este 15 Sudoeste 0 -- -- 58
2019-03-27 20:00:00 -- 3 Noroeste 4 Sudeste 0 -- -- 62
2019-03-27 19:00:00 -- 2 Este 11 Sudeste 0 -- -- 53
2019-03-27 18:00:00 -- 7 Sudeste 15 Este 0 -- -- 60
2019-03-27 17:00:00 -- 6 Sudeste 22 Este 0 -- -- 70
2019-03-27 16:00:00 -- 9 Este 28 Este 0 -- -- 52
2019-03-27 15:00:00 -- 9 Este 28 Este 0 -- -- 53
2019-03-27 14:00:00 -- 13 Este 26 Este 0 -- -- 58
2019-03-27 13:00:00 -- 8 Este 25 Sudeste 0 -- -- 69
2019-03-27 12:00:00 -- 7 Este 18 Este 0 -- -- 51
2019-03-27 11:00:00 -- 7 Oeste 14 Oeste 0 -- -- 53
2019-03-27 10:00:00 -- 9 Oeste 17 Oeste 0 -- -- 54
2019-03-27 09:00:00 -- 12 Oeste 19 Oeste 0 -- -- 64
2019-03-27 08:00:00 -- 9 Oeste 15 Oeste 0 -- -- 70
2019-03-27 07:00:00 -- 10 Oeste 14 Oeste 0 -- -- 80
2019-03-27 06:00:00 -- 6 Sudoeste 9 Sudoeste 0 -- -- 79
2019-03-27 05:00:00 -- 5 Sudoeste 12 Oeste 0 -- -- 82
2019-03-27 04:00:00 -- 7 Sudoeste 13 Oeste 0 -- -- 87
2019-03-27 03:00:00 -- 7 Oeste 17 Oeste 0 -- -- 88
2019-03-27 02:00:00 -- 10 Oeste 15 Oeste 0 -- -- 91
2019-03-27 01:00:00 -- 0 Calma 7 Este 0 -- -- 87
2019-03-27 00:00:00 -- 0 Calma 9 Sudoeste 0 -- -- 88